Time;durP1;ratioP1;P1;durP2;ratioP2;P2;SDS_P1;SDS_P2;PMS_P1;PMS_P2;Temp;Humidity;BMP_temperature;BMP_pressure;BME280_temperature;BME280_humidity;BME280_pressure;Samples;Min_cycle;Max_cycle;Signal;HPM_P1;HPM_P2
2024/03/01 00:01:26;;;;;;;1.88;1.15;;;9.30;99.90;;;;;;5080629;28;20032;-75
2024/03/01 00:03:52;;;;;;;1.90;0.95;;;9.20;99.90;;;;;;5105649;28;20036;-75
2024/03/01 00:06:17;;;;;;;1.08;0.70;;;9.30;99.90;;;;;;5091110;28;20824;-75
2024/03/01 00:08:43;;;;;;;1.25;0.70;;;9.30;99.90;;;;;;5091149;28;20107;-73
2024/03/01 00:11:09;;;;;;;4.95;1.38;;;9.20;99.90;;;;;;5091553;28;20036;-75
2024/03/01 00:13:35;;;;;;;2.78;0.63;;;9.20;99.90;;;;;;5096424;28;20044;-75
2024/03/01 00:16:00;;;;;;;2.35;0.93;;;9.30;99.90;;;;;;5097088;28;20039;-75
2024/03/01 00:18:26;;;;;;;1.52;1.15;;;9.20;99.90;;;;;;5096896;28;20036;-75
2024/03/01 00:20:52;;;;;;;1.48;0.90;;;9.30;99.90;;;;;;5091735;28;20051;-75
2024/03/01 00:23:18;;;;;;;1.92;0.82;;;9.20;99.90;;;;;;5095396;28;20039;-75
2024/03/01 00:25:46;;;;;;;1.00;0.57;;;9.20;99.90;;;;;;5090091;28;20481;-75
2024/03/01 00:28:12;;;;;;;0.38;0.38;;;9.20;99.90;;;;;;5092352;28;20055;-73
2024/03/01 00:30:38;;;;;;;0.75;0.55;;;9.20;99.90;;;;;;5111347;28;20071;-75
2024/03/01 00:33:04;;;;;;;2.17;0.88;;;9.20;99.90;;;;;;5097327;28;20043;-74
2024/03/01 00:35:30;;;;;;;1.50;1.02;;;9.20;99.90;;;;;;5115545;28;20506;-75
2024/03/01 00:37:55;;;;;;;3.45;1.30;;;9.20;99.90;;;;;;5097473;28;20056;-74
2024/03/01 00:40:22;;;;;;;2.15;1.35;;;9.20;99.90;;;;;;5117352;28;20142;-74
2024/03/01 00:42:47;;;;;;;1.38;0.82;;;9.20;99.90;;;;;;5097500;28;20044;-75
2024/03/01 00:45:13;;;;;;;2.25;0.98;;;9.20;99.90;;;;;;5113924;28;20542;-74
2024/03/01 00:47:47;;;;;;;2.40;1.02;;;9.20;99.90;;;;;;5101929;28;20052;-74
2024/03/01 00:50:14;;;;;;;1.60;0.88;;;9.20;99.90;;;;;;5110542;28;20040;-74
2024/03/01 00:52:40;;;;;;;1.48;0.70;;;9.20;99.90;;;;;;5118429;28;20063;-75
2024/03/01 00:55:06;;;;;;;0.82;0.65;;;9.30;99.90;;;;;;5097866;28;20047;-73
2024/03/01 00:57:32;;;;;;;5.82;1.10;;;9.30;99.90;;;;;;5087241;28;20036;-75
2024/03/01 00:59:59;;;;;;;2.35;0.85;;;9.30;99.90;;;;;;5118180;28;20077;-74
2024/03/01 01:02:25;;;;;;;1.55;1.15;;;9.30;99.90;;;;;;5102878;28;20040;-72
2024/03/01 01:04:50;;;;;;;3.28;1.70;;;9.40;99.90;;;;;;5105412;28;20036;-74
2024/03/01 01:07:16;;;;;;;2.45;1.58;;;9.40;99.90;;;;;;5102821;28;20040;-75
2024/03/01 01:09:43;;;;;;;2.05;1.10;;;9.40;99.90;;;;;;5106085;28;20040;-73
2024/03/01 01:12:09;;;;;;;1.08;0.63;;;9.40;99.90;;;;;;5104574;28;20036;-75
2024/03/01 01:14:34;;;;;;;2.92;1.10;;;9.30;99.90;;;;;;5110422;28;20047;-75
2024/03/01 01:17:01;;;;;;;1.75;1.02;;;9.30;99.90;;;;;;5089571;28;20044;-75
2024/03/01 01:19:26;;;;;;;1.60;1.05;;;9.30;99.90;;;;;;5107368;28;20051;-75
2024/03/01 01:21:52;;;;;;;2.75;1.38;;;9.30;99.90;;;;;;5105378;28;20032;-75
2024/03/01 01:24:18;;;;;;;1.52;1.15;;;9.30;99.90;;;;;;5109312;28;20024;-75
2024/03/01 01:26:44;;;;;;;2.25;0.85;;;9.30;99.90;;;;;;5100569;28;20047;-75
2024/03/01 01:29:09;;;;;;;1.40;0.98;;;9.30;99.90;;;;;;5107871;28;20059;-75
2024/03/01 01:31:35;;;;;;;2.13;1.17;;;9.20;99.90;;;;;;5121504;28;20130;-76
2024/03/01 01:34:01;;;;;;;1.85;0.90;;;9.30;99.90;;;;;;5107356;28;20058;-75
2024/03/01 01:36:27;;;;;;;2.70;1.17;;;9.30;99.90;;;;;;5107755;28;20044;-76
2024/03/01 01:38:52;;;;;;;3.97;1.42;;;9.30;99.90;;;;;;5125345;28;20262;-75
2024/03/01 01:41:18;;;;;;;2.35;1.33;;;9.30;99.90;;;;;;5105743;28;20087;-75
2024/03/01 01:43:44;;;;;;;3.00;1.67;;;9.20;99.90;;;;;;5099607;28;20043;-75
2024/03/01 01:46:15;;;;;;;1.77;1.00;;;9.30;99.90;;;;;;5097857;28;20040;-75
2024/03/01 01:48:43;;;;;;;3.10;1.02;;;9.30;99.90;;;;;;5097735;28;20046;-75
2024/03/01 01:51:10;;;;;;;2.17;1.52;;;9.30;99.90;;;;;;5097275;28;20048;-75
2024/03/01 01:53:36;;;;;;;2.00;1.05;;;9.30;99.90;;;;;;5101927;28;20051;-74
2024/03/01 01:56:03;;;;;;;1.30;0.82;;;9.30;99.90;;;;;;5098444;28;20048;-76
2024/03/01 01:58:31;;;;;;;1.02;0.80;;;9.20;99.90;;;;;;5098747;28;20056;-75
2024/03/01 02:00:57;;;;;;;1.65;1.13;;;9.30;99.90;;;;;;5100972;28;20044;-75
2024/03/01 02:03:23;;;;;;;1.27;1.00;;;9.30;99.90;;;;;;5102082;28;20032;-75
2024/03/01 02:05:50;;;;;;;1.90;0.93;;;9.30;99.90;;;;;;5099986;28;20214;-75
2024/03/01 02:08:16;;;;;;;2.15;1.15;;;9.20;99.90;;;;;;5102623;28;20052;-75
2024/03/01 02:10:41;;;;;;;1.60;0.68;;;9.20;99.90;;;;;;5101984;28;20040;-75
2024/03/01 02:13:17;;;;;;;1.63;1.08;;;9.20;99.90;;;;;;5106255;28;20487;-75
2024/03/01 02:15:43;;;;;;;3.00;1.08;;;9.20;99.90;;;;;;5098904;28;20568;-75
2024/03/01 02:18:09;;;;;;;2.95;1.25;;;9.20;99.90;;;;;;5118960;28;20032;-75
2024/03/01 02:20:38;;;;;;;2.65;1.20;;;9.20;99.90;;;;;;5101830;28;20394;-75
2024/03/01 02:23:08;;;;;;;1.27;0.68;;;9.20;99.90;;;;;;5102448;28;20435;-75
2024/03/01 02:25:33;;;;;;;2.17;1.33;;;9.20;99.90;;;;;;5104362;28;20089;-74
2024/03/01 02:28:02;;;;;;;1.35;1.10;;;9.20;99.90;;;;;;5100662;28;20109;-75
2024/03/01 02:30:27;;;;;;;3.78;1.73;;;9.20;99.90;;;;;;5104791;28;20518;-75
2024/03/01 02:32:53;;;;;;;2.28;1.15;;;9.10;99.90;;;;;;5103709;28;20032;-75
2024/03/01 02:35:19;;;;;;;3.22;1.48;;;9.20;99.90;;;;;;5099946;28;20043;-75
2024/03/01 02:37:44;;;;;;;3.72;1.20;;;9.10;99.90;;;;;;5099476;28;20035;-75
2024/03/01 02:40:13;;;;;;;1.40;1.02;;;9.10;99.90;;;;;;5098878;28;20375;-74
2024/03/01 02:42:38;;;;;;;1.90;1.05;;;9.00;99.90;;;;;;5095796;28;20037;-74
2024/03/01 02:45:04;;;;;;;1.80;1.00;;;9.10;99.90;;;;;;5097539;28;20244;-75
2024/03/01 02:47:30;;;;;;;2.28;1.13;;;9.00;99.90;;;;;;5100574;28;20472;-74
2024/03/01 02:49:56;;;;;;;4.72;1.58;;;9.10;99.90;;;;;;5099484;28;20047;-74
2024/03/01 02:52:22;;;;;;;3.20;1.60;;;9.00;99.90;;;;;;5060009;28;1101351;-75
2024/03/01 02:54:47;;;;;;;1.60;1.05;;;9.00;99.90;;;;;;5096169;28;20052;-74
2024/03/01 02:57:13;;;;;;;1.80;1.15;;;8.90;99.90;;;;;;5105274;28;20040;-75
2024/03/01 02:59:39;;;;;;;2.85;1.15;;;8.90;99.90;;;;;;5104610;28;20036;-73
2024/03/01 03:02:04;;;;;;;4.38;1.45;;;8.90;99.90;;;;;;5107253;28;20040;-74
2024/03/01 03:04:30;;;;;;;3.92;1.90;;;8.90;99.90;;;;;;5115264;28;20040;-75
2024/03/01 03:06:59;;;;;;;1.90;1.13;;;8.90;99.90;;;;;;5104331;28;20067;-75
2024/03/01 03:09:25;;;;;;;6.03;1.85;;;8.90;99.90;;;;;;5096439;28;20036;-74
2024/03/01 03:11:50;;;;;;;3.13;1.83;;;8.80;99.90;;;;;;5099324;28;20450;-76
2024/03/01 03:14:16;;;;;;;2.45;1.73;;;8.80;99.90;;;;;;5099383;28;20119;-74
2024/03/01 03:16:42;;;;;;;5.10;2.00;;;8.80;99.90;;;;;;5104487;28;20055;-74
2024/03/01 03:19:08;;;;;;;4.28;1.90;;;8.80;99.90;;;;;;5102802;28;20404;-74
2024/03/01 03:21:33;;;;;;;4.93;2.13;;;8.80;99.90;;;;;;5108357;28;20040;-73
2024/03/01 03:23:59;;;;;;;5.10;1.85;;;8.80;99.90;;;;;;5098188;28;20040;-74
2024/03/01 03:26:25;;;;;;;2.63;1.27;;;8.80;99.90;;;;;;5106928;28;20047;-74
2024/03/01 03:28:51;;;;;;;3.13;1.85;;;8.80;99.90;;;;;;5105293;28;20040;-74
2024/03/01 03:31:16;;;;;;;3.15;1.77;;;8.80;99.90;;;;;;5107021;28;20043;-74
2024/03/01 03:33:42;;;;;;;2.63;1.83;;;8.70;99.90;;;;;;5103487;28;20044;-73
2024/03/01 03:36:11;;;;;;;1.90;1.33;;;8.80;99.90;;;;;;5106080;28;20036;-74
2024/03/01 03:38:37;;;;;;;3.38;1.65;;;8.70;99.90;;;;;;5097912;28;20066;-73
2024/03/01 03:41:03;;;;;;;4.32;1.98;;;8.70;99.90;;;;;;5104112;28;20032;-74
2024/03/01 03:43:29;;;;;;;3.40;2.10;;;8.80;99.90;;;;;;5105493;28;20043;-73
2024/03/01 03:45:55;;;;;;;2.63;1.42;;;8.70;99.90;;;;;;5118633;28;20044;-73
2024/03/01 03:48:20;;;;;;;4.80;2.20;;;8.80;99.90;;;;;;5105311;28;20043;-74
2024/03/01 03:50:47;;;;;;;3.92;1.95;;;8.80;99.90;;;;;;5100547;28;20048;-74
2024/03/01 03:53:15;;;;;;;3.45;1.73;;;8.70;99.90;;;;;;5105173;28;20059;-74
2024/03/01 03:55:40;;;;;;;2.90;2.20;;;8.70;99.90;;;;;;5084722;28;20040;-74
2024/03/01 03:58:06;;;;;;;3.50;1.77;;;8.70;99.90;;;;;;5085423;28;20036;-73
2024/03/01 04:00:32;;;;;;;2.95;1.83;;;8.70;99.90;;;;;;5099259;28;20548;-73
2024/03/01 04:02:57;;;;;;;3.78;2.50;;;8.70;99.90;;;;;;5097600;28;20072;-74
2024/03/01 04:05:23;;;;;;;2.92;1.67;;;8.70;99.90;;;;;;5096299;28;20070;-74
2024/03/01 04:07:49;;;;;;;3.05;1.80;;;8.70;99.90;;;;;;5100026;28;20036;-74
2024/03/01 04:10:15;;;;;;;2.33;1.20;;;8.70;99.90;;;;;;5097487;28;20032;-74
2024/03/01 04:12:41;;;;;;;3.13;1.88;;;8.70;99.90;;;;;;5101536;28;20052;-73
2024/03/01 04:15:07;;;;;;;3.08;1.75;;;8.80;99.90;;;;;;5098811;28;20040;-72
2024/03/01 04:17:33;;;;;;;5.10;2.20;;;8.70;99.90;;;;;;5101025;28;20048;-74
2024/03/01 04:19:59;;;;;;;4.22;2.22;;;8.80;99.90;;;;;;5097415;28;20070;-74
2024/03/01 04:22:26;;;;;;;3.67;2.13;;;8.80;99.90;;;;;;5102238;28;20032;-74
2024/03/01 04:24:54;;;;;;;2.80;1.52;;;8.80;99.90;;;;;;5101640;28;20128;-74
2024/03/01 04:27:21;;;;;;;6.55;3.03;;;8.80;99.90;;;;;;5098005;28;20048;-74
2024/03/01 04:29:47;;;;;;;3.75;2.50;;;8.80;99.90;;;;;;5100365;28;20603;-74
2024/03/01 04:32:12;;;;;;;4.28;2.45;;;8.80;99.90;;;;;;5100532;28;20046;-74
2024/03/01 04:34:38;;;;;;;3.45;1.83;;;8.80;99.90;;;;;;5100451;28;20069;-73
2024/03/01 04:37:04;;;;;;;3.17;2.22;;;8.80;99.90;;;;;;5098976;28;20032;-72
2024/03/01 04:39:32;;;;;;;3.63;1.83;;;8.80;99.90;;;;;;5086603;28;20086;-74
2024/03/01 04:41:57;;;;;;;3.85;1.98;;;8.90;99.90;;;;;;5103523;28;20040;-73
2024/03/01 04:44:23;;;;;;;4.28;2.17;;;8.90;99.90;;;;;;5107910;28;20058;-73
2024/03/01 04:46:49;;;;;;;4.55;2.10;;;9.00;99.90;;;;;;5096701;28;20032;-73
2024/03/01 04:49:14;;;;;;;7.32;1.42;;;9.00;99.90;;;;;;5105291;28;20051;-74
2024/03/01 04:51:40;;;;;;;3.78;1.92;;;9.00;99.90;;;;;;5101411;28;20040;-74
2024/03/01 04:54:06;;;;;;;5.32;2.60;;;9.00;99.90;;;;;;5109262;28;20120;-74
2024/03/01 04:56:31;;;;;;;4.07;1.65;;;9.00;99.90;;;;;;5106239;28;20104;-71
2024/03/01 04:58:58;;;;;;;6.43;2.17;;;9.10;99.90;;;;;;5106248;28;20096;-73
2024/03/01 05:01:23;;;;;;;3.58;2.03;;;9.10;99.90;;;;;;5099822;28;20091;-72
2024/03/01 05:03:50;;;;;;;5.40;2.38;;;9.10;99.90;;;;;;5106233;28;20054;-71
2024/03/01 05:06:16;;;;;;;5.40;2.95;;;9.10;99.90;;;;;;5104891;28;20093;-72
2024/03/01 05:08:42;;;;;;;2.65;1.83;;;9.10;99.90;;;;;;5103817;28;20040;-71
2024/03/01 05:11:07;;;;;;;3.75;2.15;;;9.10;99.90;;;;;;5108383;28;20040;-71
2024/03/01 05:13:33;;;;;;;3.65;1.85;;;9.20;99.90;;;;;;5104142;28;20036;-73
2024/03/01 05:15:59;;;;;;;4.55;2.55;;;9.20;99.90;;;;;;5108811;28;20043;-71
2024/03/01 05:18:25;;;;;;;3.10;2.10;;;9.20;99.90;;;;;;5100833;28;20091;-73
2024/03/01 05:20:53;;;;;;;3.40;1.80;;;9.20;99.90;;;;;;5108078;28;20037;-73
2024/03/01 05:23:21;;;;;;;3.95;2.45;;;9.30;99.90;;;;;;5105572;28;20064;-72
2024/03/01 05:25:48;;;;;;;3.90;2.03;;;9.30;99.90;;;;;;5107435;28;20036;-73
2024/03/01 05:28:14;;;;;;;5.68;2.15;;;9.40;99.90;;;;;;5103191;28;20078;-72
2024/03/01 05:30:39;;;;;;;6.25;1.88;;;9.40;99.90;;;;;;5106831;28;20048;-72
2024/03/01 05:33:08;;;;;;;4.78;2.72;;;9.40;99.90;;;;;;5105466;28;20044;-71
2024/03/01 05:35:35;;;;;;;4.38;2.53;;;9.40;99.90;;;;;;5092183;28;20012;-72
2024/03/01 05:38:01;;;;;;;5.40;2.08;;;9.40;99.90;;;;;;5122453;28;20012;-72
2024/03/01 05:40:27;;;;;;;6.65;2.20;;;9.40;99.90;;;;;;5102980;28;20098;-71
2024/03/01 05:42:53;;;;;;;4.80;2.08;;;9.50;99.90;;;;;;5111115;28;20032;-72
2024/03/01 05:45:20;;;;;;;3.60;2.28;;;9.40;99.90;;;;;;5124957;28;20078;-72
2024/03/01 05:47:46;;;;;;;4.90;2.78;;;9.50;99.90;;;;;;5104846;28;20047;-72
2024/03/01 05:50:13;;;;;;;6.57;3.50;;;9.40;99.90;;;;;;5121992;28;20028;-73
2024/03/01 05:52:42;;;;;;;4.03;2.13;;;9.50;99.90;;;;;;5124086;28;20063;-73
2024/03/01 05:55:09;;;;;;;4.47;2.15;;;9.50;99.90;;;;;;5103581;28;20044;-73
2024/03/01 05:57:35;;;;;;;4.30;1.83;;;9.50;99.90;;;;;;5104402;28;20126;-72
2024/03/01 06:00:11;;;;;;;4.30;2.15;;;9.50;99.90;;;;;;5102694;28;20062;-73
2024/03/01 06:02:37;;;;;;;4.82;2.53;;;9.50;99.90;;;;;;5123058;28;20036;-72
2024/03/01 06:05:03;;;;;;;4.68;2.10;;;9.50;99.90;;;;;;5102828;28;20078;-73
2024/03/01 06:07:29;;;;;;;5.82;3.92;;;9.50;99.90;;;;;;5104145;28;20028;-73
2024/03/01 06:09:54;;;;;;;3.80;2.15;;;9.50;99.90;;;;;;5104132;28;20127;-73
2024/03/01 06:12:20;;;;;;;5.10;2.08;;;9.50;99.90;;;;;;5103682;28;20399;-73
2024/03/01 06:14:46;;;;;;;3.35;1.90;;;9.50;99.90;;;;;;5087197;28;20101;-72
2024/03/01 06:17:11;;;;;;;4.00;1.98;;;9.50;99.90;;;;;;5107939;28;20068;-73
2024/03/01 06:19:37;;;;;;;5.53;3.05;;;9.40;99.90;;;;;;5110345;28;20040;-72
2024/03/01 06:22:03;;;;;;;4.22;2.42;;;9.50;99.90;;;;;;5110553;28;20051;-72
2024/03/01 06:24:29;;;;;;;10.25;5.78;;;9.40;99.90;;;;;;5127467;28;20016;-71
2024/03/01 06:26:55;;;;;;;4.25;2.38;;;9.40;99.90;;;;;;5109463;28;20314;-73
2024/03/01 06:29:21;;;;;;;3.90;2.45;;;9.40;99.90;;;;;;5108780;28;20040;-73
2024/03/01 06:31:47;;;;;;;4.82;2.63;;;9.40;99.90;;;;;;5105798;28;20044;-73
2024/03/01 06:34:12;;;;;;;4.88;1.50;;;9.40;99.90;;;;;;5121046;28;20035;-72
2024/03/01 06:36:38;;;;;;;6.22;2.50;;;9.40;99.90;;;;;;5107517;28;20159;-71
2024/03/01 06:39:06;;;;;;;4.05;1.88;;;9.40;99.90;;;;;;5105489;28;20125;-71
2024/03/01 06:41:34;;;;;;;2.72;1.25;;;9.40;99.90;;;;;;5106310;28;20032;-71
2024/03/01 06:44:00;;;;;;;3.60;2.08;;;9.50;99.90;;;;;;5120292;28;20019;-73
2024/03/01 06:46:32;;;;;;;2.42;1.67;;;9.50;99.90;;;;;;5106261;28;20066;-73
2024/03/01 06:49:00;;;;;;;3.85;1.80;;;9.40;99.90;;;;;;5123471;28;20415;-72
2024/03/01 06:51:27;;;;;;;9.30;2.40;;;9.50;99.90;;;;;;5099949;28;20114;-73
2024/03/01 06:53:53;;;;;;;2.50;1.73;;;9.40;99.90;;;;;;5101667;28;20048;-73
2024/03/01 06:56:19;;;;;;;3.95;1.90;;;9.40;99.90;;;;;;5102666;28;20093;-73
2024/03/01 06:58:44;;;;;;;2.38;1.85;;;9.40;99.90;;;;;;5101960;28;20036;-73
2024/03/01 07:01:11;;;;;;;1.75;1.27;;;9.40;99.90;;;;;;5103177;28;20448;-73
2024/03/01 07:03:36;;;;;;;6.15;1.25;;;9.30;99.90;;;;;;5100473;28;20040;-73
2024/03/01 07:06:02;;;;;;;1.15;0.65;;;9.30;99.90;;;;;;5100052;28;20043;-73
2024/03/01 07:08:28;;;;;;;0.57;0.40;;;9.20;99.90;;;;;;5100491;28;20040;-70
2024/03/01 07:10:54;;;;;;;0.20;0.13;;;9.10;99.90;;;;;;5099699;28;20045;-73
2024/03/01 07:13:21;;;;;;;0.20;0.20;;;9.00;99.90;;;;;;5101245;28;20050;-72
2024/03/01 07:15:47;;;;;;;0.30;0.10;;;8.80;99.90;;;;;;5101455;28;20079;-73
2024/03/01 07:18:13;;;;;;;0.00;0.00;;;8.70;99.90;;;;;;5104185;28;20039;-71
2024/03/01 07:20:39;;;;;;;0.20;0.13;;;8.70;99.90;;;;;;5102347;28;20047;-73
2024/03/01 07:23:05;;;;;;;0.00;0.00;;;8.60;99.90;;;;;;5102199;28;20036;-73
2024/03/01 07:25:30;;;;;;;0.00;0.00;;;8.50;99.90;;;;;;5098435;28;20032;-73
2024/03/01 07:27:56;;;;;;;0.95;0.10;;;8.40;99.90;;;;;;5102555;28;20149;-72
2024/03/01 07:30:22;;;;;;;0.32;0.10;;;8.30;99.90;;;;;;5097907;28;20450;-71
2024/03/01 07:32:47;;;;;;;0.00;0.00;;;8.20;99.90;;;;;;5099066;28;20055;-73
2024/03/01 07:35:14;;;;;;;0.10;0.03;;;8.10;99.90;;;;;;5087526;28;20040;-73
2024/03/01 07:37:39;;;;;;;0.00;0.00;;;8.10;99.90;;;;;;5103685;28;20687;-72
2024/03/01 07:40:06;;;;;;;0.00;0.00;;;8.10;99.90;;;;;;5103554;28;20063;-72
2024/03/01 07:42:31;;;;;;;0.00;0.00;;;8.00;99.90;;;;;;5106921;28;20125;-72
2024/03/01 07:44:57;;;;;;;0.47;0.20;;;8.10;99.90;;;;;;5105666;28;20031;-71
2024/03/01 07:47:25;;;;;;;0.50;0.10;;;8.00;99.90;;;;;;5108025;28;20039;-73
2024/03/01 07:49:51;;;;;;;0.38;0.20;;;8.00;99.90;;;;;;5102727;28;20048;-72
2024/03/01 07:52:16;;;;;;;0.00;0.00;;;8.10;99.90;;;;;;5119428;28;20056;-73
2024/03/01 07:54:42;;;;;;;0.10;0.10;;;8.20;99.90;;;;;;5098643;28;20094;-73
2024/03/01 07:57:08;;;;;;;0.00;0.00;;;8.30;99.90;;;;;;5082727;28;20125;-72
2024/03/01 07:59:34;;;;;;;0.20;0.10;;;8.30;99.90;;;;;;5106126;28;20115;-72
2024/03/01 08:02:00;;;;;;;0.28;0.10;;;8.30;99.90;;;;;;5101057;28;20123;-72
2024/03/01 08:04:27;;;;;;;0.10;0.00;;;8.30;99.90;;;;;;5095076;28;20411;-73
2024/03/01 08:06:53;;;;;;;0.30;0.20;;;8.40;99.90;;;;;;5097551;28;20422;-73
2024/03/01 08:09:32;;;;;;;0.17;0.10;;;8.40;99.90;;;;;;5078741;28;20474;-73
2024/03/01 08:11:58;;;;;;;0.22;0.20;;;8.50;99.90;;;;;;5098153;28;20051;-72
2024/03/01 08:14:24;;;;;;;0.32;0.20;;;8.60;99.90;;;;;;5104565;28;20035;-73
2024/03/01 08:16:52;;;;;;;0.20;0.20;;;8.70;99.90;;;;;;5102450;28;20044;-72
2024/03/01 08:19:17;;;;;;;0.15;0.08;;;8.70;99.90;;;;;;5109024;28;20069;-72
2024/03/01 08:21:43;;;;;;;0.10;0.10;;;8.70;99.90;;;;;;5106219;28;20028;-72
2024/03/01 08:24:09;;;;;;;1.67;0.30;;;8.70;99.90;;;;;;5109307;28;20367;-72
2024/03/01 08:26:35;;;;;;;1.45;0.45;;;8.70;99.90;;;;;;5106682;28;20220;-72
2024/03/01 08:29:02;;;;;;;2.63;0.20;;;8.70;99.90;;;;;;5107628;28;20052;-73
2024/03/01 08:31:36;;;;;;;0.10;0.10;;;8.70;99.90;;;;;;5105938;28;20086;-72
2024/03/01 08:34:35;;;;;;;1.08;0.30;;;8.70;99.90;;;;;;5124542;28;20036;-72
2024/03/01 08:37:01;;;;;;;0.10;0.10;;;8.70;99.90;;;;;;5105086;28;20040;-73
2024/03/01 08:39:27;;;;;;;0.05;0.05;;;8.70;99.90;;;;;;5109927;28;20030;-72
2024/03/01 08:41:55;;;;;;;0.10;0.10;;;8.70;99.90;;;;;;5090858;28;20039;-73
2024/03/01 08:44:28;;;;;;;0.10;0.08;;;8.70;99.90;;;;;;5109708;28;20089;-72
2024/03/01 08:46:54;;;;;;;0.45;0.15;;;8.70;99.90;;;;;;5108678;28;20093;-72
2024/03/01 08:49:39;;;;;;;1.67;0.32;;;8.70;99.90;;;;;;5110320;28;20063;-71
2024/03/01 08:52:31;;;;;;;0.13;0.10;;;8.70;99.90;;;;;;5108392;28;20044;-72
2024/03/01 08:55:09;;;;;;;0.43;0.25;;;8.70;99.90;;;;;;5108158;28;20058;-71
2024/03/01 08:57:37;;;;;;;0.45;0.30;;;8.70;99.90;;;;;;5109518;28;20024;-70
2024/03/01 09:00:20;;;;;;;0.63;0.22;;;8.70;99.90;;;;;;5107782;28;20036;-72
2024/03/01 09:02:46;;;;;;;0.57;0.40;;;8.70;99.90;;;;;;5107649;28;20044;-71
2024/03/01 09:05:14;;;;;;;0.47;0.25;;;8.70;99.90;;;;;;5108980;28;20020;-72
2024/03/01 09:07:40;;;;;;;0.90;0.40;;;8.70;99.90;;;;;;5107335;28;20071;-71
2024/03/01 09:10:17;;;;;;;0.10;0.10;;;8.70;99.90;;;;;;5106374;28;20523;-71
2024/03/01 09:12:45;;;;;;;0.30;0.20;;;8.70;99.90;;;;;;5111479;28;20067;-71
2024/03/01 09:15:14;;;;;;;1.25;0.30;;;8.80;99.90;;;;;;5126990;28;20024;-71
2024/03/01 09:17:39;;;;;;;1.08;0.30;;;9.10;99.90;;;;;;5109522;28;20040;-71
2024/03/01 09:20:39;;;;;;;2.67;0.30;;;9.40;99.90;;;;;;5114431;28;20051;-71
2024/03/01 09:23:13;;;;;;;1.30;0.30;;;9.60;99.90;;;;;;5089326;28;20044;-71
2024/03/01 09:25:47;;;;;;;0.50;0.22;;;9.60;99.90;;;;;;5128477;28;20031;-71
2024/03/01 09:28:14;;;;;;;1.63;0.52;;;9.60;99.90;;;;;;5097376;28;20035;-71
2024/03/01 09:30:40;;;;;;;1.52;0.32;;;9.60;99.90;;;;;;5116396;28;20074;-71
2024/03/01 09:33:18;;;;;;;1.48;0.30;;;9.50;99.90;;;;;;5115164;28;20046;-72
2024/03/01 09:35:44;;;;;;;2.00;0.60;;;9.50;99.90;;;;;;5114350;28;20042;-72
2024/03/01 09:38:12;;;;;;;0.38;0.30;;;9.50;99.90;;;;;;5112986;28;20035;-72
2024/03/01 09:40:47;;;;;;;0.45;0.35;;;9.50;99.90;;;;;;5113164;28;20020;-72
2024/03/01 09:43:19;;;;;;;1.55;0.40;;;9.50;99.90;;;;;;5113967;28;20036;-70
2024/03/01 09:46:03;;;;;;;1.33;0.17;;;9.50;99.90;;;;;;5117287;28;20122;-72
2024/03/01 09:48:39;;;;;;;5.65;0.50;;;9.40;99.90;;;;;;5110249;28;20030;-71
2024/03/01 09:51:05;;;;;;;0.55;0.22;;;9.40;99.90;;;;;;5110529;28;20040;-71
2024/03/01 09:53:55;;;;;;;0.22;0.20;;;9.40;99.90;;;;;;5107931;28;20287;-71
2024/03/01 09:56:42;;;;;;;0.20;0.10;;;9.30;99.90;;;;;;5126436;28;20113;-71
2024/03/01 09:59:39;;;;;;;0.47;0.22;;;9.20;99.90;;;;;;5106043;28;20046;-72
2024/03/01 10:02:17;;;;;;;0.20;0.13;;;9.20;99.90;;;;;;5111331;28;20048;-72
2024/03/01 10:05:20;;;;;;;2.65;0.25;;;9.20;99.90;;;;;;5109545;28;20069;-71
2024/03/01 10:08:17;;;;;;;0.95;0.43;;;9.10;99.90;;;;;;5104296;28;20048;-71
2024/03/01 10:10:42;;;;;;;0.32;0.22;;;9.10;99.90;;;;;;5110105;28;20040;-72
2024/03/01 10:13:29;;;;;;;1.30;0.40;;;9.20;99.90;;;;;;5110057;28;20059;-72
2024/03/01 10:16:22;;;;;;;0.30;0.20;;;9.20;99.90;;;;;;5111197;28;20099;-71
2024/03/01 10:19:16;;;;;;;0.10;0.10;;;9.10;99.90;;;;;;5110039;28;20048;-71
2024/03/01 10:21:41;;;;;;;4.68;0.73;;;9.10;99.90;;;;;;5118506;28;20235;-71
2024/03/01 10:24:32;;;;;;;0.40;0.25;;;9.30;99.90;;;;;;5113482;28;20340;-72
2024/03/01 10:27:06;;;;;;;0.20;0.20;;;10.00;99.90;;;;;;5127972;28;20302;-72
2024/03/01 10:29:46;;;;;;;1.17;0.60;;;11.50;99.90;;;;;;5112599;28;20040;-72
2024/03/01 10:32:25;;;;;;;0.70;0.40;;;12.90;99.90;;;;;;5123337;28;20051;-72
2024/03/01 10:35:03;;;;;;;3.05;0.57;;;14.10;99.90;;;;;;5107054;28;20032;-71
2024/03/01 10:37:37;;;;;;;0.70;0.50;;;14.10;99.90;;;;;;5107880;28;20054;-71
2024/03/01 10:40:20;;;;;;;1.02;0.43;;;13.30;99.90;;;;;;5114899;28;20032;-70
2024/03/01 10:43:06;;;;;;;1.23;0.65;;;12.40;99.90;;;;;;5110889;28;20100;-71
2024/03/01 10:45:50;;;;;;;0.75;0.52;;;11.70;99.90;;;;;;5110563;28;20675;-72
2024/03/01 10:48:16;;;;;;;0.60;0.30;;;11.40;99.90;;;;;;5113789;28;20082;-72
2024/03/01 10:50:49;;;;;;;0.28;0.20;;;12.10;99.90;;;;;;5105086;28;20040;-72
2024/03/01 10:53:22;;;;;;;0.38;0.38;;;12.60;99.90;;;;;;5125725;28;20044;-72
2024/03/01 10:55:53;;;;;;;0.93;0.43;;;12.50;99.90;;;;;;5106853;28;20044;-72
2024/03/01 10:58:26;;;;;;;1.73;0.60;;;13.30;99.90;;;;;;5088944;28;20028;-71
2024/03/01 11:01:01;;;;;;;1.00;0.40;;;13.70;99.90;;;;;;5105124;28;20040;-72
2024/03/01 11:03:49;;;;;;;1.70;0.22;;;14.30;99.90;;;;;;5109163;28;20040;-72
2024/03/01 11:06:21;;;;;;;0.32;0.30;;;15.00;99.90;;;;;;5105932;28;20044;-71
2024/03/01 11:08:57;;;;;;;0.80;0.40;;;15.70;99.90;;;;;;5104456;28;20039;-71
2024/03/01 11:11:22;;;;;;;0.35;0.30;;;16.10;99.90;;;;;;5123260;28;20035;-72
2024/03/01 11:13:52;;;;;;;0.30;0.22;;;15.80;99.90;;;;;;5105260;28;20220;-72
2024/03/01 11:16:22;;;;;;;0.60;0.40;;;15.40;99.90;;;;;;5108377;28;20040;-72
2024/03/01 11:18:53;;;;;;;0.80;0.40;;;15.00;99.90;;;;;;5103564;28;20045;-71
2024/03/01 11:21:25;;;;;;;0.20;0.10;;;14.50;99.90;;;;;;5104303;28;20515;-71
2024/03/01 11:24:03;;;;;;;0.20;0.15;;;15.00;99.90;;;;;;5102160;28;20045;-72
2024/03/01 11:26:52;;;;;;;0.98;0.55;;;15.40;99.90;;;;;;5104469;28;20043;-72
2024/03/01 11:29:20;;;;;;;1.15;0.30;;;14.80;99.90;;;;;;5106943;28;20046;-72
2024/03/01 11:31:54;;;;;;;3.28;0.60;;;14.40;99.90;;;;;;5106323;28;20119;-72
2024/03/01 11:34:39;;;;;;;2.35;0.17;;;13.90;99.90;;;;;;5121875;28;20046;-73
2024/03/01 11:37:17;;;;;;;1.48;0.50;;;14.40;99.90;;;;;;5101978;28;20641;-72
2024/03/01 11:40:03;;;;;;;3.47;0.28;;;15.60;99.90;;;;;;5113402;28;20389;-72
2024/03/01 11:42:45;;;;;;;1.90;0.52;;;15.90;99.90;;;;;;5108157;28;20043;-72
2024/03/01 11:45:22;;;;;;;1.17;0.40;;;15.60;99.90;;;;;;5105629;28;20039;-72
2024/03/01 11:47:49;;;;;;;0.10;0.10;;;16.00;99.90;;;;;;5115663;28;20043;-72
2024/03/01 11:50:40;;;;;;;0.22;0.20;;;15.40;99.90;;;;;;5097301;28;20047;-71
2024/03/01 11:53:24;;;;;;;2.72;0.20;;;15.80;99.90;;;;;;5103511;28;20089;-72
2024/03/01 11:55:58;;;;;;;1.73;0.40;;;15.50;99.90;;;;;;5111817;28;20040;-72
2024/03/01 11:58:36;;;;;;;0.45;0.30;;;15.90;99.90;;;;;;5099630;28;20100;-72
2024/03/01 12:01:14;;;;;;;1.90;0.40;;;16.10;99.90;;;;;;5099726;28;20036;-72
2024/03/01 12:03:45;;;;;;;1.48;0.43;;;16.40;99.90;;;;;;5099967;28;20426;-73
2024/03/01 12:06:26;;;;;;;0.20;0.15;;;16.00;99.90;;;;;;5094383;28;20434;-73
2024/03/01 12:09:13;;;;;;;1.70;0.50;;;15.90;99.90;;;;;;5098043;28;20043;-72
2024/03/01 12:11:58;;;;;;;3.58;0.60;;;16.30;99.90;;;;;;5094165;28;20070;-73
2024/03/01 12:14:31;;;;;;;;;;;17.00;99.90;;;;;;5094751;28;20040;-73
2024/03/01 12:17:13;;;;;;;1.95;0.40;;;16.30;99.90;;;;;;5093976;28;20394;-72
2024/03/01 12:19:58;;;;;;;1.00;0.43;;;16.10;99.90;;;;;;5097405;28;20036;-72
2024/03/01 12:22:42;;;;;;;;;;;16.70;99.90;;;;;;5098795;28;20063;-73
2024/03/01 12:25:08;;;;;;;0.68;0.47;;;17.10;99.90;;;;;;5103270;28;20003;-72
2024/03/01 12:28:13;;;;;;;1.85;0.30;;;17.80;99.90;;;;;;5096769;28;20074;-72
2024/03/01 12:30:45;;;;;;;1.60;0.40;;;18.30;99.90;;;;;;5100321;28;20048;-72
2024/03/01 12:33:58;;;;;;;1.77;0.43;;;18.70;99.90;;;;;;5093905;28;20075;-72
2024/03/01 12:36:40;;;;;;;0.98;0.52;;;18.90;99.90;;;;;;5081430;28;20036;-72
2024/03/01 12:39:13;;;;;;;2.47;0.73;;;18.40;99.90;;;;;;5098687;28;20060;-71
2024/03/01 12:42:02;;;;;;;2.85;1.05;;;18.20;99.90;;;;;;5103899;28;20066;-71
2024/03/01 12:44:33;;;;;;;2.67;0.63;;;18.10;99.90;;;;;;5105021;28;20048;-72
2024/03/01 12:47:00;;;;;;;1.33;0.68;;;18.20;99.90;;;;;;5103482;28;20044;-71
2024/03/01 12:49:35;;;;;;;1.70;0.60;;;17.50;99.90;;;;;;5119465;28;20044;-73
2024/03/01 12:52:25;;;;;;;1.27;0.45;;;17.60;99.90;;;;;;5105819;28;20032;-72
2024/03/01 12:54:58;;;;;;;4.13;0.90;;;17.90;99.90;;;;;;5121068;28;20073;-72
2024/03/01 12:57:38;;;;;;;1.05;0.68;;;16.80;99.90;;;;;;5110048;28;20040;-73
2024/03/01 13:00:15;;;;;;;1.40;0.75;;;15.60;99.90;;;;;;5108973;28;20064;-72
2024/03/01 13:02:55;;;;;;;3.40;0.93;;;14.70;99.90;;;;;;5109540;28;20130;-72
2024/03/01 13:05:26;;;;;;;0.82;0.60;;;13.90;99.90;;;;;;5117319;28;20127;-71
2024/03/01 13:07:57;;;;;;;1.73;0.70;;;13.30;99.90;;;;;;5104782;28;20044;-71
2024/03/01 13:10:25;;;;;;;5.65;1.17;;;12.90;99.90;;;;;;5120788;28;20040;-72